Time;durP1;ratioP1;P1;durP2;ratioP2;P2;SDS_P1;SDS_P2;PMS_P1;PMS_P2;Temp;Humidity;BMP_temperature;BMP_pressure;BME280_temperature;BME280_humidity;BME280_pressure;Samples;Min_cycle;Max_cycle;Signal;HPM_P1;HPM_P2
2022/06/02 00:01:41;;;;;;;1.35;0.75;;;;;;;10.72;61.66;100706.34;4939623;29;20027;-68
2022/06/02 00:04:22;;;;;;;0.50;0.50;;;;;;;10.56;62.30;100703.50;4919162;29;20027;-70
2022/06/02 00:06:56;;;;;;;0.80;0.60;;;;;;;10.49;62.37;100708.34;4925871;29;20047;-69
2022/06/02 00:09:22;;;;;;;0.65;0.50;;;;;;;10.50;62.52;100720.94;4923357;29;20120;-70
2022/06/02 00:12:00;;;;;;;1.20;0.50;;;;;;;10.44;62.75;100738.34;4926387;29;20035;-70
2022/06/02 00:14:37;;;;;;;0.80;0.60;;;;;;;10.28;63.01;100713.56;4924191;29;20119;-69
2022/06/02 00:17:45;;;;;;;1.98;1.00;;;;;;;10.27;62.45;100722.84;4935427;29;20027;-69
2022/06/02 00:20:21;;;;;;;1.92;1.17;;;;;;;10.22;63.26;100725.53;4882856;29;20021;-70
2022/06/02 00:22:58;;;;;;;3.60;1.00;;;;;;;10.25;63.15;100724.19;4871166;29;20096;-70
2022/06/02 00:26:05;;;;;;;1.20;0.90;;;;;;;10.23;63.46;100718.16;4916391;29;20126;-69
2022/06/02 00:29:13;;;;;;;1.40;0.90;;;;;;;10.20;63.60;100727.69;4931898;29;20118;-70
2022/06/02 00:31:50;;;;;;;2.70;0.95;;;;;;;10.13;64.02;100725.16;4938616;29;20031;-69
2022/06/02 00:34:43;;;;;;;1.38;0.90;;;;;;;10.03;64.30;100726.94;4921501;29;20028;-69
2022/06/02 00:37:44;;;;;;;1.55;0.88;;;;;;;9.91;64.56;100719.69;4913718;29;20031;-71
2022/06/02 00:40:12;;;;;;;0.82;0.70;;;;;;;9.94;63.96;100727.41;4925034;29;20103;-72
2022/06/02 00:42:49;;;;;;;1.75;0.60;;;;;;;9.95;64.73;100720.84;4907278;29;20363;-71
2022/06/02 00:45:17;;;;;;;0.70;0.60;;;;;;;9.95;64.74;100726.31;4931737;29;20016;-69
2022/06/02 00:48:10;;;;;;;1.58;0.77;;;;;;;9.93;64.49;100725.75;4921113;29;20027;-70
2022/06/02 00:50:42;;;;;;;1.38;0.70;;;;;;;9.90;65.17;100725.41;4926256;29;20015;-70
2022/06/02 00:53:17;;;;;;;2.55;0.88;;;;;;;9.82;65.27;100725.88;4936864;29;20047;-69
2022/06/02 00:59:47;;;;;;;1.17;0.60;;;;;;;9.72;65.60;100716.44;4932276;29;20041;-70
2022/06/02 01:02:14;;;;;;;0.73;0.50;;;;;;;9.72;65.27;100721.09;4934275;29;20032;-69
2022/06/02 01:04:43;;;;;;;1.90;0.70;;;;;;;9.70;65.30;100734.19;4936615;29;20028;-69
2022/06/02 01:07:14;;;;;;;0.88;0.60;;;;;;;9.71;65.57;100735.81;4933915;29;20250;-70
2022/06/02 01:09:45;;;;;;;0.50;0.50;;;;;;;9.69;65.13;100722.41;4916462;29;21246;-69
2022/06/02 01:12:17;;;;;;;0.45;0.43;;;;;;;9.64;66.17;100725.09;4917217;29;20030;-70
2022/06/02 01:14:58;;;;;;;1.63;0.85;;;;;;;9.53;66.01;100723.28;4922385;29;20027;-69
2022/06/02 01:17:37;;;;;;;2.15;1.00;;;;;;;9.44;66.47;100720.16;4919385;29;20482;-71
2022/06/02 01:20:22;;;;;;;1.48;0.90;;;;;;;9.41;66.03;100723.41;4930896;29;20031;-70
2022/06/02 01:23:05;;;;;;;1.20;0.75;;;;;;;9.38;66.01;100726.63;4937410;29;20028;-69
2022/06/02 01:25:47;;;;;;;2.88;0.52;;;;;;;9.37;66.52;100719.50;4933173;29;20048;-70
2022/06/02 01:28:22;;;;;;;0.70;0.70;;;;;;;9.39;66.33;100711.94;4937273;29;20088;-70
2022/06/02 01:31:16;;;;;;;0.65;0.40;;;;;;;9.38;66.00;100710.25;4928184;29;20443;-70
2022/06/02 01:33:47;;;;;;;0.63;0.50;;;;;;;9.40;66.89;100725.31;4918368;29;20040;-70
2022/06/02 01:36:34;;;;;;;0.57;0.45;;;;;;;9.39;66.49;100712.75;4924188;29;20039;-69
2022/06/02 01:39:13;;;;;;;5.05;0.60;;;;;;;9.37;66.47;100714.06;4940189;29;20048;-70
2022/06/02 01:41:53;;;;;;;0.57;0.57;;;;;;;9.40;66.77;100721.75;4936057;29;20136;-69
2022/06/02 01:44:42;;;;;;;1.10;0.70;;;;;;;9.39;67.31;100722.84;4936185;29;20028;-71
2022/06/02 01:47:16;;;;;;;0.75;0.50;;;;;;;9.35;66.62;100719.78;4895963;29;20065;-70
2022/06/02 01:50:01;;;;;;;;;;;;;;;9.32;66.84;100724.91;4933006;29;20042;-71
2022/06/02 01:53:12;;;;;;;0.93;0.70;;;;;;;9.29;67.04;100715.31;4924678;29;19944;-71
2022/06/02 01:56:08;;;;;;;0.90;0.90;;;;;;;9.34;67.29;100725.47;4909301;29;20023;-71
2022/06/02 01:58:45;;;;;;;0.70;0.60;;;;;;;9.35;66.79;100721.69;4912275;29;20040;-69
2022/06/02 02:01:32;;;;;;;0.63;0.63;;;;;;;9.36;67.08;100729.63;4920621;29;20052;-69
2022/06/02 02:04:11;;;;;;;0.77;0.70;;;;;;;9.33;67.50;100723.81;4938219;29;20027;-71
2022/06/02 02:06:50;;;;;;;0.80;0.77;;;;;;;9.25;67.46;100728.63;4933575;29;20110;-70
2022/06/02 02:09:48;;;;;;;0.65;0.65;;;;;;;9.19;67.92;100724.16;4933873;29;20038;-70
2022/06/02 02:12:44;;;;;;;1.63;0.82;;;;;;;9.15;67.96;100723.00;4916434;29;20059;-69
2022/06/02 02:15:34;;;;;;;0.80;0.70;;;;;;;9.12;67.18;100718.06;4920808;29;20066;-70
2022/06/02 02:18:18;;;;;;;1.08;0.80;;;;;;;9.05;67.71;100712.78;4931141;29;20058;-69
2022/06/02 02:21:02;;;;;;;1.15;0.70;;;;;;;8.98;68.60;100711.28;4921418;29;20517;-69
2022/06/02 02:24:01;;;;;;;0.43;0.43;;;;;;;8.88;68.49;100706.50;4941477;29;20052;-69
2022/06/02 02:26:29;;;;;;;0.52;0.50;;;;;;;8.85;68.10;100709.72;4912424;29;20035;-69
2022/06/02 02:29:13;;;;;;;1.55;1.25;;;;;;;8.86;68.38;100714.09;4914705;29;20028;-68
2022/06/02 02:31:50;;;;;;;0.85;0.80;;;;;;;8.82;68.92;100710.19;4940449;29;20028;-70
2022/06/02 02:34:31;;;;;;;0.98;0.80;;;;;;;8.80;68.46;100713.19;4935960;29;20032;-70
2022/06/02 02:37:11;;;;;;;0.50;0.50;;;;;;;8.78;69.29;100707.16;4928076;29;20031;-69
2022/06/02 02:40:09;;;;;;;0.98;0.70;;;;;;;8.79;69.26;100703.38;4950692;29;20058;-69
2022/06/02 02:42:41;;;;;;;1.15;0.70;;;;;;;8.81;69.13;100698.47;4923838;29;20451;-70
2022/06/02 02:45:15;;;;;;;0.98;0.70;;;;;;;8.82;68.59;100702.88;4932441;29;20127;-70
2022/06/02 02:47:44;;;;;;;;;;;;;;;8.86;69.52;100704.03;4915852;29;20079;-70
2022/06/02 02:50:36;;;;;;;0.80;0.80;;;;;;;8.86;68.77;100704.03;4921044;29;19941;-70
2022/06/02 02:53:23;;;;;;;0.85;0.77;;;;;;;8.90;68.69;100705.16;4911301;29;20036;-71
2022/06/02 02:56:01;;;;;;;0.90;0.70;;;;;;;8.86;68.15;100698.56;4935625;29;20459;-73
2022/06/02 02:58:36;;;;;;;2.42;1.05;;;;;;;8.84;68.72;100700.72;4937727;29;20020;-69
2022/06/02 03:01:07;;;;;;;1.35;0.93;;;;;;;8.77;69.26;100705.50;4915267;29;20020;-70
2022/06/02 03:03:41;;;;;;;1.20;0.93;;;;;;;8.72;68.97;100702.69;4921756;29;20486;-70
2022/06/02 03:06:23;;;;;;;1.58;1.30;;;;;;;8.67;69.97;100705.31;4917500;29;20032;-70
2022/06/02 03:08:51;;;;;;;1.70;0.95;;;;;;;8.64;69.89;100708.53;4920045;29;20035;-70
2022/06/02 03:11:32;;;;;;;1.27;0.90;;;;;;;8.60;69.80;100704.66;4931717;29;20092;-70
2022/06/02 03:14:18;;;;;;;1.00;0.90;;;;;;;8.56;69.98;100707.06;4913103;29;20122;-69
2022/06/02 03:16:51;;;;;;;1.08;0.75;;;;;;;8.51;69.50;100699.63;4917489;29;20036;-70
2022/06/02 03:19:27;;;;;;;1.15;0.80;;;;;;;8.48;70.30;100697.34;4920150;29;20035;-70
2022/06/02 03:21:57;;;;;;;1.05;0.95;;;;;;;8.47;70.40;100711.22;4934847;29;20039;-69
2022/06/02 03:24:41;;;;;;;1.92;1.25;;;;;;;8.44;69.77;100703.53;4931107;29;20020;-70
2022/06/02 03:27:32;;;;;;;1.07;0.93;;;;;;;8.40;70.74;100700.47;4919164;29;20051;-71
2022/06/02 03:30:10;;;;;;;1.75;0.90;;;;;;;8.39;69.92;100704.25;4934933;29;20028;-70
2022/06/02 03:33:18;;;;;;;0.85;0.80;;;;;;;8.34;70.65;100705.00;4917962;29;20043;-70
2022/06/02 03:35:57;;;;;;;2.50;1.02;;;;;;;8.37;70.42;100701.78;4934342;29;20028;-68
2022/06/02 03:38:50;;;;;;;2.88;0.82;;;;;;;8.35;70.45;100705.81;4925751;29;20036;-70
2022/06/02 03:41:37;;;;;;;1.00;0.88;;;;;;;8.32;70.90;100714.47;4916680;29;20576;-70
2022/06/02 03:44:11;;;;;;;1.40;1.00;;;;;;;8.29;70.66;100715.78;4918306;29;20111;-68
2022/06/02 03:46:56;;;;;;;1.33;1.08;;;;;;;8.30;70.62;100705.75;4899317;29;20049;-70
2022/06/02 03:49:50;;;;;;;2.05;0.90;;;;;;;8.27;71.23;100700.78;4920828;29;20024;-71
2022/06/02 03:52:28;;;;;;;1.40;1.13;;;;;;;8.27;70.44;100707.03;4898464;29;20060;-71
2022/06/02 03:55:15;;;;;;;0.93;0.90;;;;;;;8.26;70.68;100707.28;4909543;29;20028;-71
2022/06/02 03:58:04;;;;;;;1.92;1.10;;;;;;;8.23;71.04;100710.50;4913466;29;20021;-70
2022/06/02 04:00:58;;;;;;;1.10;1.00;;;;;;;8.23;71.64;100711.31;4898596;29;20053;-70
2022/06/02 04:03:56;;;;;;;2.00;1.25;;;;;;;8.25;70.63;100713.78;4885835;29;20040;-70
2022/06/02 04:06:42;;;;;;;1.20;1.10;;;;;;;8.26;70.70;100715.47;4868148;29;20036;-70
2022/06/02 04:09:20;;;;;;;1.42;1.25;;;;;;;8.28;70.73;100716.03;4911928;29;20048;-69
2022/06/02 04:15:19;;;;;;;1.85;1.40;;;;;;;8.27;70.90;100717.94;4912979;29;20138;-70
2022/06/02 04:18:13;;;;;;;4.40;1.48;;;;;;;8.30;71.03;100728.34;4903712;29;20035;-70
2022/06/02 04:20:55;;;;;;;2.92;1.33;;;;;;;8.32;71.20;100725.38;4905307;29;20044;-69
2022/06/02 04:23:46;;;;;;;1.15;1.02;;;;;;;8.38;70.92;100730.69;4905968;29;20032;-70
2022/06/02 04:26:40;;;;;;;1.33;1.23;;;;;;;8.43;71.37;100734.59;4913993;29;20028;-68
2022/06/02 04:29:24;;;;;;;1.67;0.98;;;;;;;8.50;70.27;100732.56;4902835;29;20039;-68
2022/06/02 04:32:21;;;;;;;1.52;1.08;;;;;;;8.55;70.79;100735.38;4898451;29;20032;-69
2022/06/02 04:35:00;;;;;;;1.58;0.98;;;;;;;8.60;70.95;100734.63;4898274;29;20040;-70
2022/06/02 04:37:31;;;;;;;1.95;1.35;;;;;;;8.67;70.22;100735.31;4900578;29;20056;-69
2022/06/02 04:40:00;;;;;;;0.75;0.75;;;;;;;8.72;70.91;100740.88;4915163;29;20127;-71
2022/06/02 04:43:02;;;;;;;1.08;0.95;;;;;;;8.78;70.42;100734.44;4938041;29;20033;-69
2022/06/02 04:45:55;;;;;;;1.33;1.02;;;;;;;8.86;69.88;100744.94;4936008;29;20035;-70
2022/06/02 04:48:45;;;;;;;1.15;1.05;;;;;;;8.96;70.61;100740.72;4922748;29;20132;-70
2022/06/02 04:51:36;;;;;;;1.40;1.10;;;;;;;9.02;69.68;100734.25;4918946;29;20048;-71
2022/06/02 04:54:15;;;;;;;2.35;1.55;;;;;;;9.12;70.04;100742.59;4921100;29;20036;-71
2022/06/02 04:56:45;;;;;;;1.27;1.15;;;;;;;9.21;70.15;100741.13;4913936;29;20027;-70
2022/06/02 04:59:27;;;;;;;2.65;1.50;;;;;;;9.32;69.85;100741.28;4929858;29;20062;-69
2022/06/02 05:02:16;;;;;;;1.08;0.98;;;;;;;9.43;69.25;100751.25;4922171;29;20020;-70
2022/06/02 05:05:32;;;;;;;1.15;1.05;;;;;;;9.57;69.40;100741.66;4923964;29;20071;-69
2022/06/02 05:08:31;;;;;;;1.20;1.10;;;;;;;9.70;68.76;100750.56;4924141;29;20035;-70
2022/06/02 05:11:17;;;;;;;1.85;1.17;;;;;;;9.79;68.93;100752.59;4922771;29;20028;-71
2022/06/02 05:13:59;;;;;;;1.85;0.90;;;;;;;9.89;68.47;100743.72;4939206;29;20063;-70
2022/06/02 05:16:44;;;;;;;1.45;1.05;;;;;;;9.89;68.56;100743.72;4936556;29;20028;-70
2022/06/02 05:19:28;;;;;;;2.10;1.20;;;;;;;10.02;68.55;100749.91;4922632;29;20027;-70
2022/06/02 05:21:53;;;;;;;2.28;1.10;;;;;;;10.21;68.31;100756.69;4932021;29;20032;-71
2022/06/02 05:24:24;;;;;;;1.40;1.30;;;;;;;10.33;68.28;100759.25;4934744;29;20040;-70
2022/06/02 05:27:05;;;;;;;1.20;1.10;;;;;;;10.44;67.88;100760.22;4932084;29;20038;-69
2022/06/02 05:29:40;;;;;;;1.45;1.20;;;;;;;10.54;67.44;100754.91;4937715;29;20036;-69
2022/06/02 05:32:24;;;;;;;;;;;;;;;10.69;67.22;100761.56;4938057;29;20024;-70
2022/06/02 05:35:02;;;;;;;1.10;1.00;;;;;;;10.85;67.42;100770.75;4923690;29;19925;-69
2022/06/02 05:37:44;;;;;;;1.05;0.95;;;;;;;11.14;66.93;100765.81;4938533;29;20351;-71
2022/06/02 05:40:35;;;;;;;1.55;1.27;;;;;;;11.29;66.24;100765.94;4940621;29;20079;-70
2022/06/02 05:43:07;;;;;;;1.88;1.30;;;;;;;11.39;65.92;100756.97;4937488;29;20070;-70
2022/06/02 05:45:51;;;;;;;1.20;0.95;;;;;;;11.58;65.83;100762.84;4939766;29;20028;-70
2022/06/02 05:48:36;;;;;;;2.22;1.20;;;;;;;11.75;65.47;100767.31;4943485;29;20137;-70
2022/06/02 05:51:35;;;;;;;2.08;1.52;;;;;;;11.88;64.83;100777.81;4928573;29;20063;-71
2022/06/02 05:54:36;;;;;;;1.60;1.48;;;;;;;12.13;64.21;100774.38;4920218;29;20024;-70
2022/06/02 05:57:17;;;;;;;1.80;1.33;;;;;;;12.30;64.09;100768.69;4922381;29;20015;-70
2022/06/02 06:00:06;;;;;;;1.85;1.17;;;;;;;12.46;63.67;100772.31;4949123;29;20024;-69
2022/06/02 06:02:44;;;;;;;1.83;1.20;;;;;;;12.68;63.70;100774.81;4932763;29;20032;-72
2022/06/02 06:05:17;;;;;;;1.67;1.13;;;;;;;12.86;63.32;100775.41;4939472;29;20057;-71
2022/06/02 06:08:16;;;;;;;1.60;1.20;;;;;;;12.95;62.90;100779.25;4939469;29;20478;-71
2022/06/02 06:11:10;;;;;;;1.40;1.10;;;;;;;13.02;63.20;100773.50;4920702;29;20537;-70
2022/06/02 06:14:11;;;;;;;1.85;1.42;;;;;;;13.13;62.90;100777.06;4936000;29;20035;-71
2022/06/02 06:16:57;;;;;;;1.20;1.08;;;;;;;13.32;62.10;100769.91;4923133;29;20031;-71
2022/06/02 06:19:45;;;;;;;1.58;1.20;;;;;;;13.53;61.93;100780.91;4940193;29;20034;-69
2022/06/02 06:22:28;;;;;;;4.82;1.77;;;;;;;13.62;62.39;100776.50;4911600;29;20090;-71
2022/06/02 06:25:18;;;;;;;2.38;1.52;;;;;;;13.70;62.37;100786.94;4940556;29;20035;-70
2022/06/02 06:28:09;;;;;;;1.45;1.10;;;;;;;13.75;62.08;100780.59;4913422;29;20096;-70
2022/06/02 06:30:53;;;;;;;1.92;1.23;;;;;;;13.79;61.26;100787.19;4937287;29;20028;-70
2022/06/02 06:33:40;;;;;;;1.23;1.05;;;;;;;13.82;61.43;100775.63;4926372;29;20046;-71
2022/06/02 06:36:30;;;;;;;1.48;1.10;;;;;;;13.89;61.46;100780.84;4943700;29;20038;-70
2022/06/02 06:39:19;;;;;;;1.95;1.23;;;;;;;14.01;61.51;100792.34;4932326;29;20031;-70
2022/06/02 06:42:07;;;;;;;1.55;1.08;;;;;;;14.03;61.44;100792.06;4934375;29;20024;-71
2022/06/02 06:44:44;;;;;;;2.45;1.20;;;;;;;14.03;61.26;100787.41;4908941;29;20048;-70
2022/06/02 06:47:46;;;;;;;1.45;0.90;;;;;;;14.04;61.47;100789.03;4937827;29;20032;-71
2022/06/02 06:50:29;;;;;;;1.35;1.23;;;;;;;14.06;61.34;100792.34;4937779;29;20051;-69
2022/06/02 06:53:17;;;;;;;1.77;1.47;;;;;;;14.09;61.04;100800.03;4937429;29;20042;-69
2022/06/02 06:55:54;;;;;;;1.63;1.17;;;;;;;14.03;61.26;100798.41;4931602;29;20104;-70
2022/06/02 06:58:58;;;;;;;1.08;0.93;;;;;;;14.11;61.23;100800.53;4949729;29;20043;-70
2022/06/02 07:01:45;;;;;;;2.42;1.30;;;;;;;14.16;61.28;100798.88;4883425;29;20032;-71
2022/06/02 07:04:41;;;;;;;1.65;1.30;;;;;;;14.24;61.50;100807.38;4934045;29;20083;-70
2022/06/02 07:07:17;;;;;;;1.55;1.20;;;;;;;14.31;60.56;100804.34;4915277;29;20102;-68
2022/06/02 07:10:06;;;;;;;2.00;1.30;;;;;;;14.37;60.58;100803.19;4934809;29;20027;-69
2022/06/02 07:12:52;;;;;;;1.80;1.10;;;;;;;14.47;60.66;100807.81;4936299;29;20027;-68
2022/06/02 07:15:37;;;;;;;1.23;1.13;;;;;;;14.64;60.46;100793.72;4925188;29;20030;-70
2022/06/02 07:18:12;;;;;;;2.20;1.30;;;;;;;14.88;60.23;100795.78;4922354;29;20039;-69
2022/06/02 07:20:59;;;;;;;2.08;1.27;;;;;;;15.08;59.91;100812.16;4940222;29;20038;-69
2022/06/02 07:23:47;;;;;;;1.40;1.30;;;;;;;15.35;59.44;100805.34;4931071;29;20136;-68
2022/06/02 07:26:41;;;;;;;1.55;1.20;;;;;;;15.42;58.96;100794.81;4922188;29;20035;-70
2022/06/02 07:29:25;;;;;;;1.60;1.50;;;;;;;15.65;58.96;100800.63;4929739;29;20046;-70
2022/06/02 07:32:05;;;;;;;2.47;1.35;;;;;;;15.84;59.02;100801.59;4930498;29;20032;-68
2022/06/02 07:35:05;;;;;;;1.77;1.25;;;;;;;16.04;58.99;100796.94;4925804;29;20039;-68
2022/06/02 07:37:42;;;;;;;2.10;1.17;;;;;;;16.22;58.45;100807.22;4925359;29;20039;-68
2022/06/02 07:40:17;;;;;;;3.00;1.70;;;;;;;16.32;58.45;100802.69;4929025;29;20107;-69
2022/06/02 07:43:02;;;;;;;4.05;2.00;;;;;;;16.46;58.30;100800.03;4906693;29;20676;-68
2022/06/02 07:45:34;;;;;;;3.50;1.40;;;;;;;16.44;57.81;100808.59;4906353;29;20841;-70
2022/06/02 07:48:43;;;;;;;1.50;1.20;;;;;;;16.58;57.96;100808.69;4924994;29;20030;-70
2022/06/02 07:51:26;;;;;;;5.68;1.50;;;;;;;16.68;57.83;100807.72;4909482;29;20107;-70
2022/06/02 07:54:19;;;;;;;2.78;1.65;;;;;;;16.77;57.68;100805.94;4917830;29;20090;-70
2022/06/02 07:56:56;;;;;;;1.98;1.50;;;;;;;16.89;57.54;100803.59;4931289;29;20040;-69
2022/06/02 07:59:31;;;;;;;3.28;2.10;;;;;;;16.88;57.04;100804.69;4930068;29;20171;-70
2022/06/02 08:02:34;;;;;;;2.35;1.60;;;;;;;16.67;58.01;100809.66;4927893;29;20077;-70
2022/06/02 08:05:22;;;;;;;1.50;1.40;;;;;;;16.55;58.63;100810.09;4929347;29;20458;-69
2022/06/02 08:08:10;;;;;;;1.15;1.02;;;;;;;16.74;58.25;100812.06;4925054;29;20039;-70
2022/06/02 08:10:50;;;;;;;3.25;1.38;;;;;;;16.73;58.30;100804.88;4934407;29;20035;-70
2022/06/02 08:13:39;;;;;;;1.67;1.25;;;;;;;16.83;57.68;100807.50;4916006;29;20020;-69
2022/06/02 08:16:47;;;;;;;4.50;2.00;;;;;;;16.75;56.97;100802.66;4930637;29;20028;-70
2022/06/02 08:19:34;;;;;;;2.78;1.65;;;;;;;16.72;56.53;100817.06;4887806;29;20035;-68
2022/06/02 08:22:04;;;;;;;2.50;1.77;;;;;;;16.51;57.00;100800.75;4916471;29;20355;-74
2022/06/02 08:24:34;;;;;;;2.70;1.15;;;;;;;16.68;57.23;100804.97;4930839;29;20127;-72
2022/06/02 08:27:17;;;;;;;2.10;1.10;;;;;;;16.81;54.90;100795.94;4935944;29;20047;-72
2022/06/02 08:29:53;;;;;;;2.03;1.00;;;;;;;17.18;53.24;100815.56;4916132;29;20023;-73
2022/06/02 08:32:25;;;;;;;2.33;1.00;;;;;;;17.48;51.97;100807.88;4936838;29;20032;-72
2022/06/02 08:35:13;;;;;;;1.70;0.98;;;;;;;17.74;50.94;100811.84;4938358;29;20039;-72
2022/06/02 08:37:47;;;;;;;2.35;0.98;;;;;;;17.89;50.48;100816.25;4911912;29;20035;-72
2022/06/02 08:40:55;;;;;;;2.00;0.95;;;;;;;18.23;50.54;100815.06;4911929;29;20052;-73
2022/06/02 08:43:59;;;;;;;2.47;1.05;;;;;;;18.44;48.40;100818.22;4918857;29;20055;-72
2022/06/02 08:46:28;;;;;;;1.63;0.80;;;;;;;18.39;47.92;100815.56;4926725;29;20046;-73
2022/06/02 08:49:21;;;;;;;2.05;1.02;;;;;;;18.51;47.49;100815.03;4921692;29;20084;-76
2022/06/02 08:52:20;;;;;;;1.63;1.00;;;;;;;18.61;47.14;100819.53;4916644;29;20020;-74
2022/06/02 08:55:16;;;;;;;3.60;1.00;;;;;;;18.95;47.05;100816.31;4942587;29;20090;-76
2022/06/02 08:58:24;;;;;;;2.45;0.75;;;;;;;19.39;45.56;100813.84;4928476;29;20078;-78
2022/06/02 09:01:33;;;;;;;1.20;0.77;;;;;;;19.97;45.44;100800.94;4918078;29;20083;-76
2022/06/02 09:04:36;;;;;;;1.17;0.93;;;;;;;20.74;43.69;100818.16;4920998;29;20031;-77
2022/06/02 09:07:28;;;;;;;0.80;0.70;;;;;;;20.99;44.18;100818.50;4930028;29;20019;-77
2022/06/02 09:10:15;;;;;;;1.70;0.80;;;;;;;21.52;42.14;100818.47;4937017;29;20088;-76
2022/06/02 09:13:02;;;;;;;1.50;0.90;;;;;;;21.64;40.80;100815.81;4957232;28;20008;-79
2022/06/02 09:15:58;;;;;;;1.95;0.80;;;;;;;21.88;40.49;100814.44;4928228;29;20134;-76
2022/06/02 09:18:54;;;;;;;4.32;0.82;;;;;;;22.63;39.44;100816.66;4949223;29;20020;-77
2022/06/02 09:22:00;;;;;;;2.22;0.82;;;;;;;23.21;38.96;100816.09;4938064;29;20107;-77
2022/06/02 09:24:41;;;;;;;2.15;0.90;;;;;;;23.05;37.98;100822.25;4934547;29;20356;-77
2022/06/02 09:27:44;;;;;;;0.75;0.70;;;;;;;22.60;39.17;100817.34;4924139;29;20173;-77
2022/06/02 09:30:27;;;;;;;0.82;0.80;;;;;;;22.66;38.71;100821.56;4923678;29;20020;-77
2022/06/02 09:36:57;;;;;;;1.20;0.80;;;;;;;22.76;37.22;100826.72;4943514;29;20058;-79
2022/06/02 09:39:42;;;;;;;3.15;0.70;;;;;;;21.69;38.68;100817.63;4943897;29;20086;-78
2022/06/02 09:42:40;;;;;;;1.95;1.00;;;;;;;21.60;39.51;100812.88;4932290;29;20115;-76
2022/06/02 09:49:16;;;;;;;0.57;0.50;;;;;;;23.05;38.54;100819.47;4953864;29;20026;-76
2022/06/02 09:52:09;;;;;;;2.45;1.00;;;;;;;23.32;36.46;100820.09;4931295;29;20031;-76
2022/06/02 09:55:09;;;;;;;0.77;0.60;;;;;;;23.85;36.72;100821.13;4922378;29;20039;-76
2022/06/02 09:58:12;;;;;;;;;;;;;;;;;;;;;
2022/06/02 10:01:05;;;;;;;2.50;0.60;;;;;;;25.31;33.34;100794.50;4936844;29;20063;-76
2022/06/02 10:03:56;;;;;;;1.65;0.70;;;;;;;26.33;31.38;100825.91;4935504;28;20016;-76
2022/06/02 10:06:52;;;;;;;1.73;0.60;;;;;;;25.39;32.63;100823.50;4929719;28;20011;-76
2022/06/02 10:09:50;;;;;;;1.25;0.70;;;;;;;24.80;33.53;100813.81;4938248;29;20443;-77
2022/06/02 10:12:56;;;;;;;3.42;0.98;;;;;;;23.91;33.40;100818.97;4929317;29;20032;-77
2022/06/02 10:15:40;;;;;;;1.35;0.80;;;;;;;25.47;33.10;100814.16;4933811;29;20040;-76
2022/06/02 10:18:32;;;;;;;1.23;0.80;;;;;;;26.88;30.86;100818.38;4944273;29;20024;-77
2022/06/02 10:21:00;;;;;;;1.95;0.77;;;;;;;28.34;27.79;100821.50;4936400;29;20073;-76
2022/06/02 10:23:57;;;;;;;2.85;0.68;;;;;;;28.44;27.52;100822.03;4945509;29;20083;-77
2022/06/02 10:27:03;;;;;;;1.30;0.80;;;;;;;28.60;27.08;100819.84;4950036;28;20046;-77
2022/06/02 10:29:48;;;;;;;0.85;0.70;;;;;;;28.43;25.69;100837.28;4935290;29;20047;-77
2022/06/02 10:32:26;;;;;;;1.60;0.90;;;;;;;28.37;26.47;100820.75;4933773;29;20136;-77
2022/06/02 10:35:28;;;;;;;3.40;1.20;;;;;;;28.76;25.41;100830.16;4936923;29;20134;-77
2022/06/02 10:38:12;;;;;;;1.75;0.93;;;;;;;28.80;26.19;100828.22;4947031;29;20040;-77
2022/06/02 10:41:05;;;;;;;3.15;0.90;;;;;;;29.98;25.71;100816.66;4932533;29;20111;-76
2022/06/02 10:43:46;;;;;;;1.53;0.70;;;;;;;30.82;24.13;100830.94;4932205;29;20028;-77
2022/06/02 10:46:33;;;;;;;1.88;0.80;;;;;;;30.97;22.74;100826.16;4925427;29;20047;-77
2022/06/02 10:49:12;;;;;;;4.53;0.60;;;;;;;31.99;22.29;100819.56;4935790;29;20008;-77
2022/06/02 10:51:49;;;;;;;2.03;0.85;;;;;;;32.47;21.60;100830.44;4935968;29;20107;-76
2022/06/02 10:54:37;;;;;;;1.80;1.00;;;;;;;32.71;20.49;100839.34;4942551;29;20375;-77
2022/06/02 10:57:35;;;;;;;0.73;0.55;;;;;;;33.82;20.51;100826.66;4936028;29;20023;-77
2022/06/02 11:00:04;;;;;;;2.13;1.17;;;;;;;35.34;17.99;100828.72;4923510;29;20124;-76
2022/06/02 11:03:14;;;;;;;1.00;0.90;;;;;;;35.50;16.51;100815.88;4946463;29;20031;-77
2022/06/02 11:05:59;;;;;;;1.58;0.73;;;;;;;34.87;17.86;100823.63;4935781;29;20043;-77
2022/06/02 11:08:55;;;;;;;1.85;0.85;;;;;;;35.48;17.38;100824.84;4947469;29;20054;-76
2022/06/02 11:11:57;;;;;;;2.35;0.95;;;;;;;35.95;16.74;100824.94;4941127;29;20031;-77
2022/06/02 11:14:46;;;;;;;1.13;0.95;;;;;;;36.67;16.25;100823.63;4936114;29;20064;-76
2022/06/02 11:17:42;;;;;;;3.05;0.93;;;;;;;37.41;15.21;100821.69;4934778;29;20065;-77
2022/06/02 11:20:25;;;;;;;1.55;0.90;;;;;;;37.55;14.65;100817.72;4944394;29;20103;-76
2022/06/02 11:23:20;;;;;;;0.80;0.70;;;;;;;36.77;13.92;100821.03;4933552;29;20050;-76
2022/06/02 11:26:16;;;;;;;1.20;1.10;;;;;;;35.60;15.07;100821.44;4938558;29;20465;-78
2022/06/02 11:28:47;;;;;;;2.25;0.98;;;;;;;34.97;15.46;100813.34;4928335;29;20043;-79
2022/06/02 11:31:40;;;;;;;4.47;1.25;;;;;;;35.89;15.72;100808.78;4929890;29;20024;-76
2022/06/02 11:34:06;;;;;;;1.35;1.02;;;;;;;35.87;15.29;100803.53;4930588;29;20028;-77
2022/06/02 11:36:56;;;;;;;1.30;0.90;;;;;;;35.74;15.17;100800.47;4938713;29;20036;-77
2022/06/02 11:39:47;;;;;;;2.22;0.80;;;;;;;35.79;14.33;100793.50;4948113;29;20035;-77
2022/06/02 11:42:51;;;;;;;1.52;1.17;;;;;;;36.05;14.91;100796.72;4934626;29;20086;-76
2022/06/02 11:45:19;;;;;;;1.30;1.00;;;;;;;36.61;14.85;100796.91;4950492;29;20031;-76
2022/06/02 11:48:03;;;;;;;2.90;1.20;;;;;;;36.91;14.48;100786.53;4933364;29;20067;-76
2022/06/02 11:51:13;;;;;;;3.70;0.77;;;;;;;39.23;13.38;100787.91;4928774;29;20028;-76
2022/06/02 11:53:57;;;;;;;2.30;1.30;;;;;;;40.96;12.10;100787.63;4932593;29;20192;-77
2022/06/02 11:56:38;;;;;;;1.20;1.00;;;;;;;38.84;12.57;100776.38;4933380;29;20107;-77
2022/06/02 11:59:23;;;;;;;1.33;0.90;;;;;;;35.29;15.50;100778.84;4915231;29;20031;-76
2022/06/02 12:02:10;;;;;;;0.80;0.75;;;;;;;37.10;14.45;100781.25;4944533;29;20102;-77
2022/06/02 12:04:53;;;;;;;3.20;1.00;;;;;;;38.53;13.09;100776.06;4927920;29;20032;-76
2022/06/02 12:07:51;;;;;;;1.85;0.70;;;;;;;40.41;12.18;100765.13;4938620;29;20027;-76
2022/06/02 12:10:54;;;;;;;1.20;0.70;;;;;;;42.79;11.00;100784.81;4930661;29;20019;-76
2022/06/02 12:13:59;;;;;;;2.53;0.60;;;;;;;43.50;10.09;100768.25;4941485;29;20039;-78
2022/06/02 12:16:33;;;;;;;1.65;0.43;;;;;;;44.23;9.63;100759.56;4932288;29;20269;-77
2022/06/02 12:19:07;;;;;;;1.20;0.80;;;;;;;43.63;9.19;100770.09;4933621;29;20028;-76
2022/06/02 12:21:47;;;;;;;3.13;1.17;;;;;;;44.13;9.52;100749.44;4935571;29;20023;-77
2022/06/02 12:24:30;;;;;;;1.70;0.90;;;;;;;47.01;8.13;100767.97;4933773;29;20431;-77
2022/06/02 12:27:01;;;;;;;1.38;0.77;;;;;;;48.13;6.98;100759.63;4946863;28;20036;-76
2022/06/02 12:29:51;;;;;;;1.17;0.90;;;;;;;41.39;9.82;100751.53;4920408;29;20040;-77
2022/06/02 12:32:34;;;;;;;1.48;0.70;;;;;;;42.63;10.46;100762.19;4921098;29;20406;-78
2022/06/02 12:35:20;;;;;;;0.88;0.85;;;;;;;44.50;9.33;100744.13;4918825;29;20039;-76
2022/06/02 12:38:00;;;;;;;1.48;0.60;;;;;;;46.99;7.13;100753.19;4933229;29;20031;-77
2022/06/02 12:40:26;;;;;;;0.68;0.65;;;;;;;47.89;7.24;100752.16;4928139;29;20056;-76
2022/06/02 12:43:30;;;;;;;1.08;0.70;;;;;;;48.44;6.53;100749.13;4921321;29;20048;-77
2022/06/02 12:46:13;;;;;;;0.50;0.50;;;;;;;48.58;7.27;100743.09;4929174;29;20023;-77
2022/06/02 12:49:17;;;;;;;1.02;0.60;;;;;;;48.27;6.81;100738.31;4935716;29;20028;-77
2022/06/02 12:52:07;;;;;;;1.83;0.70;;;;;;;46.03;6.81;100745.66;4954673;29;20024;-77
2022/06/02 12:55:17;;;;;;;0.73;0.50;;;;;;;45.77;8.12;100726.97;4940724;29;20105;-76
2022/06/02 12:58:22;;;;;;;0.95;0.47;;;;;;;46.87;7.73;100725.47;4930606;29;20019;-76
2022/06/02 13:01:23;;;;;;;0.90;0.55;;;;;;;45.90;7.41;100740.25;4940875;29;20059;-77
2022/06/02 13:04:23;;;;;;;0.68;0.57;;;;;;;45.25;8.25;100739.09;4939754;29;20078;-77
2022/06/02 13:07:31;;;;;;;1.45;0.70;;;;;;;46.27;7.24;100746.22;4929722;29;20047;-76
2022/06/02 13:10:34;;;;;;;0.63;0.60;;;;;;;43.77;8.58;100720.44;4931656;29;20032;-77
2022/06/02 13:13:22;;;;;;;0.68;0.55;;;;;;;45.40;8.07;100739.06;4928792;29;20023;-78
2022/06/02 13:16:13;;;;;;;0.40;0.40;;;;;;;48.14;7.82;100730.13;4931674;29;20083;-78